Time;durP1;ratioP1;P1;durP2;ratioP2;P2;SDS_P1;SDS_P2;PMS_P1;PMS_P2;Temp;Humidity;BMP_temperature;BMP_pressure;BME280_temperature;BME280_humidity;BME280_pressure;Samples;Min_cycle;Max_cycle;Signal;HPM_P1;HPM_P2
2021/07/29 00:01:51;;;;;;;5.03;2.70;;;;;;;18.92;92.66;95882.81;6249401;22;20183;-92
2021/07/29 00:04:16;;;;;;;5.88;2.80;;;;;;;18.73;92.45;95862.84;6246702;23;20015;-92
2021/07/29 00:06:42;;;;;;;6.30;2.92;;;;;;;18.80;92.99;95873.22;6246886;23;20091;-92
2021/07/29 00:09:08;;;;;;;6.63;2.88;;;;;;;18.55;92.30;95843.09;6248637;22;19996;-92
2021/07/29 00:11:34;;;;;;;4.43;2.85;;;;;;;18.75;92.30;95874.81;6248217;22;20030;-92
2021/07/29 00:14:01;;;;;;;4.25;3.03;;;;;;;18.63;92.45;95867.22;6247493;23;20000;-92
2021/07/29 00:16:29;;;;;;;4.07;3.22;;;;;;;18.66;93.81;95868.94;6247172;23;20070;-92
2021/07/29 00:19:05;;;;;;;4.25;3.03;;;;;;;18.49;93.93;95844.44;6247222;23;20417;-95
2021/07/29 00:21:34;;;;;;;4.13;3.22;;;;;;;18.59;93.61;95873.03;6246995;23;20000;-92
2021/07/29 00:24:10;;;;;;;5.80;3.63;;;;;;;18.68;92.39;95893.91;6246514;23;20391;-92
2021/07/29 00:26:37;;;;;;;6.78;3.25;;;;;;;18.62;94.28;95876.75;6247117;23;20031;-92
2021/07/29 00:29:02;;;;;;;4.05;2.70;;;;;;;18.63;92.56;95867.97;6246655;23;20008;-93
2021/07/29 00:31:32;;;;;;;3.75;2.47;;;;;;;18.66;92.21;95883.44;6248162;23;20057;-92
2021/07/29 00:33:59;;;;;;;3.70;2.65;;;;;;;18.48;93.05;95864.94;6247326;23;20008;-92
2021/07/29 00:36:25;;;;;;;4.95;2.22;;;;;;;18.51;92.02;95867.38;6247073;23;20027;-92
2021/07/29 00:38:51;;;;;;;3.10;2.40;;;;;;;18.48;93.05;95870.44;6246648;23;20083;-92
2021/07/29 00:41:16;;;;;;;4.70;2.50;;;;;;;18.33;93.20;95854.41;6246936;23;20027;-92
2021/07/29 00:43:44;;;;;;;4.20;2.65;;;;;;;18.43;92.47;95880.25;6247032;23;20032;-93
2021/07/29 00:46:11;;;;;;;3.40;2.55;;;;;;;18.43;92.59;95874.75;6246548;23;20000;-92
2021/07/29 00:48:38;;;;;;;5.30;2.50;;;;;;;18.41;92.28;95871.78;6248923;22;20004;-93
2021/07/29 00:51:04;;;;;;;4.25;2.70;;;;;;;18.46;93.05;95873.72;6246748;23;20394;-92
2021/07/29 00:53:30;;;;;;;4.60;2.85;;;;;;;18.38;92.71;95875.59;6246590;23;20018;-92
2021/07/29 00:55:56;;;;;;;4.07;2.60;;;;;;;18.51;93.86;95881.13;6246515;23;20071;-92
2021/07/29 00:58:22;;;;;;;5.50;2.70;;;;;;;18.40;92.26;95866.81;6246357;23;20015;-92
2021/07/29 01:00:48;;;;;;;3.78;2.40;;;;;;;18.48;93.15;95884.16;6246589;23;20384;-92
2021/07/29 01:03:14;;;;;;;2.97;2.30;;;;;;;18.28;91.45;95855.97;6246353;23;20061;-92
2021/07/29 01:05:41;;;;;;;3.03;2.50;;;;;;;18.40;92.94;95873.06;6246532;23;20429;-92
2021/07/29 01:08:06;;;;;;;4.82;2.45;;;;;;;18.34;92.19;95861.41;6247833;23;20309;-92
2021/07/29 01:10:34;;;;;;;4.13;2.55;;;;;;;18.26;92.54;95850.25;6247726;23;20011;-93
2021/07/29 01:12:59;;;;;;;3.88;2.70;;;;;;;18.30;93.62;95858.94;6247018;23;20008;-92
2021/07/29 01:15:25;;;;;;;6.40;2.58;;;;;;;18.24;92.17;95852.78;6246717;23;20360;-92
2021/07/29 01:17:52;;;;;;;4.07;2.60;;;;;;;17.99;93.29;95810.88;6248431;22;20000;-92
2021/07/29 01:20:22;;;;;;;3.38;2.85;;;;;;;18.30;92.63;95863.69;6247104;23;20004;-92
2021/07/29 01:22:48;;;;;;;5.45;3.08;;;;;;;18.27;93.70;95862.75;6246661;23;20078;-92
2021/07/29 01:25:13;;;;;;;4.03;2.90;;;;;;;18.32;93.47;95875.66;6246217;23;20436;-92
2021/07/29 01:27:42;;;;;;;5.88;3.17;;;;;;;18.31;94.73;95887.16;6251082;22;20000;-92
2021/07/29 01:30:09;;;;;;;3.97;2.78;;;;;;;18.18;91.91;95871.34;6247030;23;20014;-92
2021/07/29 01:32:36;;;;;;;5.28;3.05;;;;;;;18.08;92.26;95851.00;6246359;23;20559;-92
2021/07/29 01:35:03;;;;;;;4.82;3.40;;;;;;;18.04;92.52;95828.56;6246462;23;20027;-92
2021/07/29 01:37:28;;;;;;;6.38;3.35;;;;;;;18.17;94.17;95856.13;6246257;23;20010;-93
2021/07/29 01:39:54;;;;;;;6.22;3.63;;;;;;;18.20;93.95;95857.06;6246060;23;20023;-92
2021/07/29 01:42:20;;;;;;;4.50;3.05;;;;;;;18.12;93.22;95856.94;6247870;23;20004;-92
2021/07/29 01:44:45;;;;;;;6.00;3.13;;;;;;;18.13;94.07;95846.69;6246269;23;20141;-92
2021/07/29 01:47:11;;;;;;;4.90;3.25;;;;;;;18.18;94.04;95862.38;6246234;23;20453;-93
2021/07/29 01:49:36;;;;;;;6.03;3.22;;;;;;;18.13;94.42;95857.69;6246467;23;20066;-93
2021/07/29 01:52:02;;;;;;;6.72;3.70;;;;;;;18.12;95.25;95859.69;6246137;23;20118;-92
2021/07/29 01:54:28;;;;;;;4.43;3.60;;;;;;;18.04;94.78;95848.53;6246225;23;20020;-93
2021/07/29 01:56:53;;;;;;;5.72;3.67;;;;;;;17.98;94.80;95839.63;6246156;23;20014;-92
2021/07/29 01:59:19;;;;;;;5.47;3.78;;;;;;;18.11;95.58;95865.69;6246181;23;20079;-92
2021/07/29 02:01:44;;;;;;;5.53;3.50;;;;;;;18.18;95.34;95878.84;6247501;22;20004;-93
2021/07/29 02:04:41;;;;;;;5.18;3.25;;;;;;;18.22;93.10;95887.53;6246159;23;20004;-92
2021/07/29 02:07:06;;;;;;;5.63;3.50;;;;;;;18.13;94.88;95872.16;6245699;23;20008;-92
2021/07/29 02:09:32;;;;;;;6.13;3.60;;;;;;;18.18;95.81;95873.34;6245692;23;20004;-91
2021/07/29 02:11:59;;;;;;;4.53;3.60;;;;;;;18.18;95.72;95876.84;6246029;23;20135;-92
2021/07/29 02:14:25;;;;;;;5.78;3.85;;;;;;;18.22;96.18;95871.81;6246061;23;20002;-92
2021/07/29 02:16:51;;;;;;;4.28;3.50;;;;;;;18.24;96.86;95872.00;6246470;23;20086;-92
2021/07/29 02:19:16;;;;;;;5.20;3.20;;;;;;;18.20;95.53;95868.06;6249326;23;20487;-93
2021/07/29 02:21:42;;;;;;;5.57;3.42;;;;;;;18.15;94.37;95866.13;6246965;23;20082;-91
2021/07/29 02:24:08;;;;;;;4.97;3.63;;;;;;;18.17;95.25;95869.88;6245873;23;20011;-91
2021/07/29 02:26:34;;;;;;;5.35;3.35;;;;;;;18.20;94.18;95868.06;6246360;23;20008;-92
2021/07/29 02:28:59;;;;;;;4.95;3.30;;;;;;;18.24;93.92;95874.75;6245886;23;20066;-91
2021/07/29 02:31:25;;;;;;;6.30;3.50;;;;;;;18.25;94.72;95881.00;6245891;23;20319;-92
2021/07/29 02:33:50;;;;;;;4.53;3.50;;;;;;;18.21;95.34;95877.78;6245777;23;20091;-92
2021/07/29 02:36:16;;;;;;;5.20;3.28;;;;;;;18.23;96.21;95880.78;6245198;23;20532;-92
2021/07/29 02:38:42;;;;;;;4.60;3.28;;;;;;;18.09;94.63;95866.22;6247447;23;20058;-92
2021/07/29 02:41:07;;;;;;;5.15;3.42;;;;;;;18.15;95.69;95875.13;6245899;23;20042;-92
2021/07/29 02:43:33;;;;;;;5.93;3.35;;;;;;;18.21;95.49;95877.78;6245815;23;20008;-92
2021/07/29 02:45:58;;;;;;;5.10;3.42;;;;;;;18.24;95.99;95869.25;6245831;23;20008;-92
2021/07/29 02:48:24;;;;;;;3.80;3.20;;;;;;;17.98;95.76;95853.38;6245823;23;20008;-92
2021/07/29 02:50:54;;;;;;;7.45;3.50;;;;;;;18.13;96.01;95882.41;6246024;23;20066;-93
2021/07/29 02:53:20;;;;;;;;;;;;;;;18.20;96.63;95890.06;6245534;23;20103;-92
2021/07/29 02:55:46;;;;;;;6.05;3.40;;;;;;;18.17;95.14;95874.63;6244980;23;19904;-92
2021/07/29 02:58:12;;;;;;;4.80;3.35;;;;;;;18.12;96.43;95881.66;6245150;23;20062;-93
2021/07/29 03:00:37;;;;;;;7.72;3.60;;;;;;;18.08;95.29;95874.97;6245003;23;20010;-92
2021/07/29 03:03:03;;;;;;;3.83;3.20;;;;;;;18.07;95.51;95882.47;6244784;23;20011;-92
2021/07/29 03:05:29;;;;;;;6.40;3.45;;;;;;;18.10;95.66;95875.94;6244498;23;20028;-92
2021/07/29 03:07:54;;;;;;;6.40;3.63;;;;;;;18.08;96.53;95881.22;6245970;23;20008;-93
2021/07/29 03:10:20;;;;;;;4.93;3.60;;;;;;;18.21;95.79;95894.28;6245647;23;20011;-93
2021/07/29 03:12:45;;;;;;;5.07;3.53;;;;;;;18.11;94.77;95884.91;6246267;23;20008;-92
2021/07/29 03:15:11;;;;;;;6.05;3.40;;;;;;;18.10;96.30;95888.94;6245598;23;20004;-93
2021/07/29 03:17:36;;;;;;;6.53;3.45;;;;;;;18.09;95.31;95890.94;6246806;22;20425;-93
2021/07/29 03:20:03;;;;;;;6.95;3.40;;;;;;;18.19;95.90;95894.81;6245579;23;20011;-92
2021/07/29 03:22:28;;;;;;;4.10;3.30;;;;;;;18.17;95.46;95908.34;6246877;23;20027;-93
2021/07/29 03:24:54;;;;;;;5.25;3.38;;;;;;;18.18;94.20;95903.59;6247480;23;20035;-92
2021/07/29 03:27:19;;;;;;;5.93;3.63;;;;;;;18.16;96.54;95912.31;6247510;23;20497;-92
2021/07/29 03:29:45;;;;;;;5.53;4.20;;;;;;;18.21;96.14;95911.50;6247278;23;20004;-93
2021/07/29 03:32:10;;;;;;;4.65;3.75;;;;;;;18.18;97.20;95901.56;6247150;23;20004;-92
2021/07/29 03:34:41;;;;;;;6.07;3.50;;;;;;;18.14;96.72;95903.88;6247350;23;19996;-92
2021/07/29 03:37:06;;;;;;;4.72;3.35;;;;;;;18.14;97.02;95901.13;6247462;23;20090;-92
2021/07/29 03:39:32;;;;;;;4.70;3.78;;;;;;;18.17;97.80;95908.34;6247130;23;20130;-92
2021/07/29 03:41:57;;;;;;;5.43;4.10;;;;;;;18.14;97.26;95903.88;6247110;23;20008;-92
2021/07/29 03:44:23;;;;;;;5.63;4.05;;;;;;;18.20;96.42;95910.03;6247336;23;20004;-93
2021/07/29 03:46:49;;;;;;;6.53;4.40;;;;;;;18.18;96.69;95900.84;6247095;23;20034;-91
2021/07/29 03:49:14;;;;;;;4.80;4.00;;;;;;;18.24;96.04;95904.25;6247054;23;20337;-92
2021/07/29 03:51:40;;;;;;;6.20;4.35;;;;;;;18.21;96.71;95908.03;6247233;23;20013;-94
2021/07/29 03:54:05;;;;;;;5.22;3.85;;;;;;;18.28;96.41;95919.19;6246743;23;20020;-92
2021/07/29 03:56:31;;;;;;;6.47;4.20;;;;;;;18.17;95.74;95897.34;6247308;23;20004;-92
2021/07/29 03:58:56;;;;;;;7.30;4.70;;;;;;;18.26;96.88;95915.44;6247002;23;20499;-92
2021/07/29 04:01:22;;;;;;;4.95;4.45;;;;;;;18.15;97.20;95894.34;6247161;23;20004;-92
2021/07/29 04:03:47;;;;;;;7.82;4.45;;;;;;;18.13;98.40;95891.41;6247291;23;20054;-92
2021/07/29 04:06:19;;;;;;;7.63;4.70;;;;;;;18.24;98.63;95898.75;6246726;23;20011;-92
2021/07/29 04:08:44;;;;;;;8.40;4.43;;;;;;;18.23;96.60;95894.53;6246902;23;20008;-93
2021/07/29 04:11:10;;;;;;;7.25;4.50;;;;;;;18.17;97.17;95902.84;6246863;23;20422;-92
2021/07/29 04:13:35;;;;;;;7.40;4.28;;;;;;;18.19;98.31;95905.06;6247189;23;20004;-93
2021/07/29 04:16:02;;;;;;;6.28;4.25;;;;;;;18.20;97.68;95910.03;6246721;23;20000;-92
2021/07/29 04:18:28;;;;;;;5.47;4.32;;;;;;;18.21;97.93;95916.28;6246936;23;20086;-93
2021/07/29 04:20:54;;;;;;;6.53;4.47;;;;;;;18.28;97.95;95919.19;6246839;23;20008;-92
2021/07/29 04:23:20;;;;;;;5.30;4.50;;;;;;;18.26;96.46;95915.44;6247045;23;20014;-92
2021/07/29 04:25:46;;;;;;;5.05;4.00;;;;;;;18.29;96.86;95917.19;6246538;23;20008;-92
2021/07/29 04:28:11;;;;;;;6.38;4.13;;;;;;;18.38;96.79;95918.81;6246736;23;20000;-92
2021/07/29 04:30:37;;;;;;;7.32;4.68;;;;;;;18.28;98.23;95912.94;6246730;23;20032;-93
2021/07/29 04:33:02;;;;;;;5.63;4.50;;;;;;;18.24;97.56;95910.50;6247675;22;20322;-93
2021/07/29 04:35:28;;;;;;;6.28;4.15;;;;;;;18.31;98.29;95912.63;6246665;23;20063;-94
2021/07/29 04:37:53;;;;;;;7.00;4.20;;;;;;;18.38;96.07;95929.81;6247281;23;20012;-93
2021/07/29 04:40:19;;;;;;;6.97;4.07;;;;;;;18.36;95.80;95924.09;6247170;23;20008;-94
2021/07/29 04:42:45;;;;;;;5.70;3.30;;;;;;;18.40;95.19;95941.78;6246762;23;20011;-93
2021/07/29 04:45:11;;;;;;;5.68;3.90;;;;;;;18.22;97.08;95918.53;6246583;23;20035;-94
2021/07/29 04:47:36;;;;;;;8.48;3.90;;;;;;;18.39;96.33;95934.78;6246823;23;20004;-94
2021/07/29 04:50:02;;;;;;;4.40;4.00;;;;;;;18.27;96.35;95927.97;6246577;23;20004;-93
2021/07/29 04:52:28;;;;;;;5.90;3.92;;;;;;;18.31;97.22;95920.88;6246754;23;20004;-93
2021/07/29 04:54:53;;;;;;;5.53;3.42;;;;;;;18.28;95.42;95918.44;6246389;23;20016;-93
2021/07/29 04:57:19;;;;;;;5.47;3.70;;;;;;;18.36;95.16;95924.09;6246923;23;20008;-93
2021/07/29 04:59:45;;;;;;;5.20;3.80;;;;;;;18.41;96.73;95929.50;6246650;23;20008;-93
2021/07/29 05:02:10;;;;;;;6.85;3.60;;;;;;;18.44;96.43;95935.97;6246394;23;20004;-93
2021/07/29 05:04:36;;;;;;;7.85;3.58;;;;;;;18.38;95.88;95925.06;6246002;23;20000;-93
2021/07/29 05:07:01;;;;;;;7.32;3.88;;;;;;;18.47;95.25;95932.19;6246343;23;20031;-93
2021/07/29 05:09:27;;;;;;;6.72;3.75;;;;;;;18.47;95.07;95926.69;6246271;23;20336;-94
2021/07/29 05:11:52;;;;;;;5.18;3.80;;;;;;;18.54;94.63;95932.34;6246306;23;20305;-93
2021/07/29 05:14:18;;;;;;;6.28;3.70;;;;;;;18.52;97.96;95934.84;6246034;23;20345;-93
2021/07/29 05:16:44;;;;;;;4.30;3.67;;;;;;;18.63;98.40;95942.19;6246240;23;20012;-93
2021/07/29 05:19:09;;;;;;;4.70;3.38;;;;;;;18.58;98.70;95929.28;6248719;23;20444;-93
2021/07/29 05:21:35;;;;;;;5.00;4.07;;;;;;;18.55;98.88;95928.31;6246282;23;20333;-93
2021/07/29 05:24:04;;;;;;;6.40;3.95;;;;;;;18.56;99.49;95913.31;6246583;23;20084;-93
2021/07/29 05:26:29;;;;;;;5.65;4.20;;;;;;;18.64;97.67;95921.69;6246350;23;20008;-93
2021/07/29 05:28:55;;;;;;;6.95;4.35;;;;;;;18.77;98.19;95940.31;6246266;23;20015;-93
2021/07/29 05:31:20;;;;;;;8.80;4.35;;;;;;;18.66;96.19;95926.69;6246091;23;20011;-93
2021/07/29 05:33:45;;;;;;;7.82;4.32;;;;;;;18.82;97.66;95942.97;6245858;23;20084;-93
2021/07/29 05:36:11;;;;;;;5.97;4.45;;;;;;;18.90;95.65;95945.09;6246062;23;20483;-93
2021/07/29 05:38:36;;;;;;;6.25;4.40;;;;;;;18.89;94.20;95949.13;6246265;23;20536;-94
2021/07/29 05:41:06;;;;;;;5.30;4.30;;;;;;;18.98;95.30;95955.00;6245842;23;20032;-93
2021/07/29 05:43:34;;;;;;;5.50;4.40;;;;;;;18.89;93.96;95946.38;6246022;23;20008;-93
2021/07/29 05:46:00;;;;;;;7.93;4.75;;;;;;;19.02;96.04;95960.19;6245553;23;20511;-92
2021/07/29 05:48:25;;;;;;;5.97;4.13;;;;;;;18.91;93.10;95954.84;6245988;23;20011;-93
2021/07/29 05:50:53;;;;;;;6.95;4.72;;;;;;;18.83;95.30;95938.94;6245719;23;20058;-93
2021/07/29 05:53:18;;;;;;;5.07;4.50;;;;;;;19.18;96.01;95975.72;6245985;23;20437;-93
2021/07/29 05:55:44;;;;;;;7.78;4.80;;;;;;;19.05;94.95;95959.88;6245343;23;20000;-93
2021/07/29 05:58:09;;;;;;;5.78;4.45;;;;;;;19.03;95.43;95953.44;6245767;23;20004;-93
2021/07/29 06:00:36;;;;;;;7.80;4.97;;;;;;;19.14;95.35;95966.28;6245819;23;20008;-93
2021/07/29 06:03:03;;;;;;;5.95;4.85;;;;;;;19.09;93.06;95957.56;6245928;23;20003;-94
2021/07/29 06:05:28;;;;;;;6.53;4.97;;;;;;;19.16;94.83;95967.22;6246015;23;20024;-93
2021/07/29 06:07:54;;;;;;;6.72;4.82;;;;;;;19.18;94.34;95958.47;6241447;23;20000;-94
2021/07/29 06:10:19;;;;;;;9.77;5.63;;;;;;;19.22;93.90;95964.38;6245841;23;20471;-92
2021/07/29 06:12:45;;;;;;;9.40;4.90;;;;;;;19.28;94.31;95974.06;6245697;23;20015;-93
2021/07/29 06:15:10;;;;;;;7.47;4.90;;;;;;;19.25;94.30;95969.59;6245718;23;20071;-93
2021/07/29 06:17:37;;;;;;;7.68;5.07;;;;;;;19.34;94.17;95982.22;6245773;23;20050;-93
2021/07/29 06:20:07;;;;;;;5.40;4.88;;;;;;;19.41;93.37;95987.09;6245556;23;20031;-93
2021/07/29 06:22:34;;;;;;;8.07;5.70;;;;;;;19.42;96.60;95983.06;6245854;23;20007;-93
2021/07/29 06:25:01;;;;;;;9.20;5.72;;;;;;;19.42;92.52;95972.06;6245713;23;20349;-93
2021/07/29 06:27:27;;;;;;;8.25;5.78;;;;;;;19.29;92.01;95950.75;6245780;23;20027;-93
2021/07/29 06:29:52;;;;;;;9.93;5.95;;;;;;;19.45;91.59;95970.28;6245500;23;20119;-93
2021/07/29 06:32:18;;;;;;;10.27;6.65;;;;;;;19.45;93.12;95965.53;6245657;23;20036;-93
2021/07/29 06:34:59;;;;;;;8.38;6.53;;;;;;;19.55;95.36;95972.09;6245589;23;20014;-93
2021/07/29 06:37:24;;;;;;;8.35;7.43;;;;;;;19.63;92.11;95972.25;6245434;23;20032;-94
2021/07/29 06:39:50;;;;;;;8.75;7.85;;;;;;;19.75;91.12;95972.78;6246120;22;20000;-93
2021/07/29 06:42:15;;;;;;;8.77;7.88;;;;;;;19.93;93.29;95979.50;6244986;23;20065;-93
2021/07/29 06:44:41;;;;;;;14.68;8.93;;;;;;;19.90;91.25;95973.00;6245779;23;20110;-93
2021/07/29 06:47:12;;;;;;;11.02;9.55;;;;;;;20.08;88.15;95982.44;6245076;23;20004;-93
2021/07/29 06:49:37;;;;;;;12.52;10.27;;;;;;;20.08;88.15;95982.44;6245076;23;20008;-93
2021/07/29 06:52:03;;;;;;;13.27;11.40;;;;;;;20.13;88.14;95971.34;6244790;23;20022;-94
2021/07/29 06:54:29;;;;;;;13.63;10.82;;;;;;;20.13;88.14;95971.34;6244679;23;20023;-94
2021/07/29 06:56:54;;;;;;;12.25;10.75;;;;;;;20.13;88.14;95971.34;6247340;22;20004;-95
2021/07/29 06:59:20;;;;;;;13.18;11.10;;;;;;;-145.61;100.00;68426.72;6246842;23;20008;-94
2021/07/29 07:01:46;;;;;;;15.23;11.20;;;;;;;-145.61;100.00;68426.72;6246988;23;20385;-94
2021/07/29 07:04:11;;;;;;;14.02;11.23;;;;;;;-145.61;100.00;68426.72;6246746;23;20083;-93
2021/07/29 07:06:37;;;;;;;13.63;11.30;;;;;;;-145.61;100.00;68426.72;6246583;23;20082;-93
2021/07/29 07:09:02;;;;;;;12.90;11.50;;;;;;;-145.61;100.00;68426.72;6245995;23;20375;-92
2021/07/29 07:11:28;;;;;;;13.55;11.52;;;;;;;-145.61;100.00;68426.72;6246449;22;20079;-93
2021/07/29 07:13:55;;;;;;;11.90;10.70;;;;;;;-145.61;100.00;68426.72;6247011;22;20008;-93
2021/07/29 07:16:21;;;;;;;13.40;10.32;;;;;;;-145.61;100.00;68426.72;6245983;23;20050;-93
2021/07/29 07:18:46;;;;;;;12.15;11.05;;;;;;;-145.61;100.00;68426.72;6246193;23;20421;-92
2021/07/29 07:21:12;;;;;;;13.82;11.00;;;;;;;-145.61;100.00;68426.72;6245667;23;20058;-93
2021/07/29 07:23:40;;;;;;;12.40;11.20;;;;;;;-145.61;100.00;68426.72;6243723;23;20004;-93
2021/07/29 07:26:12;;;;;;;12.27;11.02;;;;;;;-145.61;100.00;68426.72;6246972;23;20007;-92
2021/07/29 07:28:38;;;;;;;11.20;10.20;;;;;;;-145.61;100.00;68426.72;6247032;23;20008;-93
2021/07/29 07:31:03;;;;;;;11.15;10.00;;;;;;;-145.61;100.00;68426.72;6247024;23;20019;-93
2021/07/29 07:33:29;;;;;;;11.70;10.30;;;;;;;-145.61;100.00;68426.72;6247979;23;20031;-93
2021/07/29 07:35:54;;;;;;;12.02;10.88;;;;;;;-145.61;100.00;68426.72;6246807;23;20003;-94
2021/07/29 07:38:20;;;;;;;13.70;11.35;;;;;;;-145.61;100.00;68426.72;6246849;23;20004;-93
2021/07/29 07:40:45;;;;;;;15.52;10.73;;;;;;;-145.61;100.00;68426.72;6245797;23;20057;-93
2021/07/29 07:43:11;;;;;;;14.05;11.02;;;;;;;-145.61;100.00;68426.72;6246518;23;20032;-93
2021/07/29 07:45:37;;;;;;;11.70;10.48;;;;;;;-145.61;100.00;68426.72;6246283;23;20098;-93
2021/07/29 07:48:04;;;;;;;11.98;10.73;;;;;;;-145.61;100.00;68426.72;6246123;23;20028;-93
2021/07/29 07:50:29;;;;;;;11.20;9.90;;;;;;;-145.61;100.00;68426.72;6246714;23;20000;-92
2021/07/29 07:52:55;;;;;;;10.57;9.45;;;;;;;-145.61;100.00;68426.72;6245615;23;20491;-92
2021/07/29 07:55:20;;;;;;;15.77;9.95;;;;;;;-145.61;100.00;68426.72;6246065;23;20007;-92
2021/07/29 07:57:45;;;;;;;14.52;9.88;;;;;;;-145.61;100.00;68426.72;6246784;23;20004;-93
2021/07/29 08:00:12;;;;;;;10.35;9.25;;;;;;;-145.61;100.00;68426.72;6246771;23;20086;-93
2021/07/29 08:02:37;;;;;;;10.10;8.70;;;;;;;-145.61;100.00;68426.72;6246875;23;20142;-92
2021/07/29 08:05:03;;;;;;;10.02;9.02;;;;;;;-145.61;100.00;68426.72;6246228;23;20064;-92
2021/07/29 08:07:29;;;;;;;10.30;9.13;;;;;;;-145.61;100.00;68426.72;6246238;23;20027;-93
2021/07/29 08:09:56;;;;;;;10.25;9.20;;;;;;;-145.61;100.00;68426.72;6246554;23;20087;-93
2021/07/29 08:12:22;;;;;;;11.73;9.90;;;;;;;-145.61;100.00;68426.72;6246535;23;20078;-92
2021/07/29 08:14:47;;;;;;;17.73;9.82;;;;;;;-145.61;100.00;68426.72;6246527;23;20417;-93
2021/07/29 08:17:13;;;;;;;10.05;8.98;;;;;;;-145.61;100.00;68426.72;6245657;23;20004;-92
2021/07/29 08:19:39;;;;;;;9.63;8.73;;;;;;;-145.61;100.00;68426.72;6246464;23;20348;-92
2021/07/29 08:22:04;;;;;;;10.38;9.05;;;;;;;-145.61;100.00;68426.72;6246248;23;20421;-93
2021/07/29 08:24:30;;;;;;;9.45;8.50;;;;;;;-145.61;100.00;68426.72;6246466;23;20130;-92
2021/07/29 08:26:57;;;;;;;9.07;8.18;;;;;;;-145.61;100.00;68426.72;6245967;23;20012;-93
2021/07/29 08:29:22;;;;;;;9.93;8.13;;;;;;;-145.61;100.00;68426.72;6246240;23;20444;-93
2021/07/29 08:31:48;;;;;;;9.57;8.68;;;;;;;-145.61;100.00;68426.72;6245859;23;20000;-92
2021/07/29 08:34:14;;;;;;;9.13;8.13;;;;;;;-145.61;100.00;68426.72;6245888;23;20012;-92
2021/07/29 08:36:41;;;;;;;8.70;7.78;;;;;;;-145.61;100.00;68426.72;6245848;23;20000;-93
2021/07/29 08:39:07;;;;;;;8.43;7.68;;;;;;;-145.61;100.00;68426.72;6247710;22;20324;-94
2021/07/29 08:41:34;;;;;;;6.75;6.15;;;;;;;-145.61;100.00;68426.72;6246084;23;20065;-93
2021/07/29 08:44:00;;;;;;;8.88;7.32;;;;;;;-145.61;100.00;68426.72;6245832;23;20008;-93
2021/07/29 08:46:26;;;;;;;7.07;6.35;;;;;;;-145.61;100.00;68426.72;6246051;23;20466;-93
2021/07/29 08:48:52;;;;;;;8.18;7.38;;;;;;;-145.61;100.00;68426.72;6245093;23;20012;-93
2021/07/29 08:51:24;;;;;;;7.90;7.10;;;;;;;-145.61;100.00;68426.72;6245981;23;20004;-92
2021/07/29 08:53:51;;;;;;;11.10;7.40;;;;;;;-145.61;100.00;68426.72;6244475;23;20012;-93
2021/07/29 08:56:24;;;;;;;8.30;7.40;;;;;;;-145.61;100.00;68426.72;6246044;23;20010;-92
2021/07/29 08:58:53;;;;;;;8.48;7.35;;;;;;;-145.61;100.00;68426.72;6245603;23;20341;-92
2021/07/29 09:01:18;;;;;;;7.22;6.53;;;;;;;-145.61;100.00;68426.72;6243679;23;20352;-93
2021/07/29 09:03:44;;;;;;;6.53;5.93;;;;;;;-145.61;100.00;68426.72;6244335;23;20019;-93
2021/07/29 09:06:12;;;;;;;8.88;6.68;;;;;;;-145.61;100.00;68426.72;6245711;23;20004;-94
2021/07/29 09:08:46;;;;;;;9.00;6.93;;;;;;;-145.61;100.00;68426.72;6246151;23;20004;-93
2021/07/29 09:11:30;;;;;;;6.88;6.18;;;;;;;-145.61;100.00;68426.72;6245897;23;20481;-93
2021/07/29 09:14:15;;;;;;;5.93;5.32;;;;;;;-145.61;100.00;68426.72;6245562;23;20433;-94
2021/07/29 09:17:01;;;;;;;5.95;5.35;;;;;;;-145.61;100.00;68426.72;6246046;23;20397;-93
2021/07/29 09:19:39;;;;;;;7.22;5.70;;;;;;;-145.61;100.00;68426.72;6245433;23;20079;-93
2021/07/29 09:22:19;;;;;;;5.10;4.65;;;;;;;-145.61;100.00;68426.72;6245370;23;20036;-94
2021/07/29 09:25:00;;;;;;;7.78;5.18;;;;;;;-145.61;100.00;68426.72;6245797;23;20388;-93
2021/07/29 09:27:42;;;;;;;5.22;4.72;;;;;;;-145.61;100.00;68426.72;6245920;23;20004;-94
2021/07/29 09:30:26;;;;;;;5.78;5.18;;;;;;;20.13;88.14;95971.34;6245912;23;20004;-94
2021/07/29 09:33:04;;;;;;;4.97;4.47;;;;;;;-145.61;100.00;68426.72;6245876;23;20079;-95
2021/07/29 09:35:29;;;;;;;4.82;4.22;;;;;;;20.13;88.14;95971.34;6245781;23;20004;-93
2021/07/29 09:37:55;;;;;;;5.25;4.35;;;;;;;23.74;57.30;95964.22;6245352;23;20046;-94
2021/07/29 09:40:21;;;;;;;5.18;4.28;;;;;;;23.74;57.30;95964.22;6244975;23;20015;-93
2021/07/29 09:43:06;;;;;;;5.63;4.50;;;;;;;23.97;57.27;95975.25;6243899;23;20054;-93
2021/07/29 09:45:32;;;;;;;4.47;4.07;;;;;;;23.97;57.27;95975.25;6243693;23;20007;-93
2021/07/29 09:47:58;;;;;;;3.92;3.53;;;;;;;23.97;57.27;95975.25;6244542;23;20000;-94
2021/07/29 09:50:25;;;;;;;4.20;3.80;;;;;;;24.03;54.14;95968.25;6246096;23;20008;-93
2021/07/29 09:52:52;;;;;;;4.72;3.78;;;;;;;24.01;52.69;95962.50;6245092;23;20029;-94
2021/07/29 09:55:18;;;;;;;5.22;3.65;;;;;;;24.13;56.23;95943.47;6245807;23;20008;-93
2021/07/29 09:57:44;;;;;;;4.95;3.05;;;;;;;24.29;51.46;95969.13;6245402;23;20042;-94
2021/07/29 10:00:10;;;;;;;4.40;3.20;;;;;;;24.14;50.80;95949.75;6245747;23;20004;-94
2021/07/29 10:02:36;;;;;;;3.53;3.03;;;;;;;24.38;53.02;95956.72;6245086;23;20432;-94
2021/07/29 10:05:11;;;;;;;4.35;3.30;;;;;;;24.59;51.99;95973.84;6247814;23;20004;-94
2021/07/29 10:07:40;;;;;;;3.75;3.20;;;;;;;24.50;51.90;95946.69;6245064;23;20008;-94
2021/07/29 10:10:08;;;;;;;3.00;2.70;;;;;;;24.45;48.64;95959.47;6245235;23;20011;-94
2021/07/29 10:12:34;;;;;;;4.68;3.08;;;;;;;24.61;49.42;95953.84;6245286;23;20015;-94
2021/07/29 10:15:02;;;;;;;3.08;2.78;;;;;;;24.78;50.72;95960.25;6245475;23;19997;-94
2021/07/29 10:17:34;;;;;;;4.28;3.17;;;;;;;24.94;51.25;95969.25;6245445;23;20012;-93
2021/07/29 10:20:26;;;;;;;3.35;2.80;;;;;;;24.72;46.60;95959.00;6245328;23;20106;-93
2021/07/29 10:23:13;;;;;;;2.92;2.60;;;;;;;24.90;47.40;95968.16;6239850;23;20011;-94
2021/07/29 10:25:54;;;;;;;3.20;2.83;;;;;;;25.01;47.43;95978.84;6249258;23;20065;-93
2021/07/29 10:28:28;;;;;;;2.92;2.63;;;;;;;25.06;46.59;95967.53;6245195;23;20011;-95
2021/07/29 10:30:55;;;;;;;2.58;2.38;;;;;;;25.17;47.68;95957.28;6248674;23;20008;-94
2021/07/29 10:33:23;;;;;;;3.42;2.60;;;;;;;25.16;45.92;95939.16;6247688;23;20429;-94
2021/07/29 10:35:49;;;;;;;3.15;2.75;;;;;;;25.29;46.48;95933.31;6247537;23;20062;-94
2021/07/29 10:38:50;;;;;;;3.50;3.20;;;;;;;25.50;44.63;95960.75;6247532;23;20000;-94
2021/07/29 10:41:22;;;;;;;3.10;2.80;;;;;;;25.51;43.97;95956.66;6247234;23;20011;-94
2021/07/29 10:43:48;;;;;;;3.15;2.90;;;;;;;25.58;44.37;95944.78;6248387;23;20326;-94
2021/07/29 10:46:13;;;;;;;3.33;3.00;;;;;;;25.41;41.99;95928.03;6247282;23;20012;-96
2021/07/29 10:48:39;;;;;;;3.30;3.00;;;;;;;25.84;44.05;95951.81;6247282;23;20057;-94
2021/07/29 10:51:14;;;;;;;3.15;2.85;;;;;;;25.80;42.20;95934.78;6246568;23;20015;-94
2021/07/29 10:53:40;;;;;;;3.22;2.92;;;;;;;25.90;41.55;95934.88;6246770;23;20020;-95
2021/07/29 10:56:16;;;;;;;3.70;2.60;;;;;;;25.96;42.14;95938.16;6247273;23;20058;-95
2021/07/29 10:58:46;;;;;;;3.03;2.80;;;;;;;25.95;40.96;95917.94;6247530;23;20004;-95
2021/07/29 11:01:13;;;;;;;3.03;2.80;;;;;;;26.13;44.75;95927.03;6247637;23;19996;-95
2021/07/29 11:04:13;;;;;;;3.47;2.80;;;;;;;26.34;42.03;95921.03;6247561;23;20465;-94
2021/07/29 11:06:39;;;;;;;2.60;2.35;;;;;;;26.71;41.38;95940.66;6245931;23;20460;-94
2021/07/29 11:09:21;;;;;;;3.10;2.80;;;;;;;26.82;38.39;95954.81;6247384;23;20011;-95
2021/07/29 11:11:50;;;;;;;3.08;2.70;;;;;;;26.65;38.05;95952.06;6247040;23;20099;-94
2021/07/29 11:14:34;;;;;;;4.18;2.88;;;;;;;26.71;38.68;95946.97;6243011;23;20043;-95
2021/07/29 11:17:02;;;;;;;2.95;2.67;;;;;;;26.76;38.79;95932.06;6247423;23;20103;-94
2021/07/29 11:19:28;;;;;;;2.65;2.45;;;;;;;26.99;40.35;95922.66;6247275;23;20069;-95
2021/07/29 11:22:07;;;;;;;3.63;3.03;;;;;;;27.13;36.14;95943.28;6247736;23;20035;-96
2021/07/29 11:24:35;;;;;;;3.63;2.90;;;;;;;27.36;39.29;95951.28;6247075;23;20004;-94
2021/07/29 11:27:02;;;;;;;2.85;2.50;;;;;;;27.20;36.42;95906.19;6247100;23;20081;-94
2021/07/29 11:29:28;;;;;;;2.90;2.70;;;;;;;27.38;39.15;95918.75;6247251;23;20008;-95